Time;durP1;ratioP1;P1;durP2;ratioP2;P2;SDS_P1;SDS_P2;PMS_P1;PMS_P2;Temp;Humidity;BMP_temperature;BMP_pressure;BME280_temperature;BME280_humidity;BME280_pressure;Samples;Min_cycle;Max_cycle;Signal;HPM_P1;HPM_P2
2024/01/15 00:00:44;;;;;;;32.08;13.10;;;;;;;-1.26;62.33;96175.63;5017836;28;20034;-81
2024/01/15 00:03:10;;;;;;;41.80;13.13;;;;;;;-1.13;62.25;96192.75;5016711;28;20144;-78
2024/01/15 00:05:36;;;;;;;35.78;13.52;;;;;;;-0.89;61.76;96196.50;5018722;28;20034;-78
2024/01/15 00:08:01;;;;;;;36.45;12.98;;;;;;;-0.84;61.71;96204.38;5034204;28;20099;-78
2024/01/15 00:10:55;;;;;;;35.95;14.02;;;;;;;-0.79;61.63;96189.22;5016412;28;20041;-78
2024/01/15 00:13:20;;;;;;;35.13;11.95;;;;;;;-1.06;62.30;96190.16;5008329;28;20077;-79
2024/01/15 00:15:45;;;;;;;32.47;12.45;;;;;;;-0.88;62.08;96194.72;5017084;28;20454;-78
2024/01/15 00:18:11;;;;;;;33.40;11.85;;;;;;;-0.96;62.46;96186.28;5021494;28;20025;-79
2024/01/15 00:20:36;;;;;;;36.22;12.88;;;;;;;-0.94;62.13;96188.63;5006974;28;20038;-78
2024/01/15 00:23:02;;;;;;;29.08;10.85;;;;;;;-0.81;62.23;96186.06;5036798;28;20485;-80
2024/01/15 00:25:27;;;;;;;38.08;11.88;;;;;;;-0.95;62.13;96175.06;5029077;28;20052;-82
2024/01/15 00:27:52;;;;;;;39.90;11.77;;;;;;;-0.87;62.15;96170.75;4999924;28;20034;-82
2024/01/15 00:30:18;;;;;;;29.30;10.38;;;;;;;-0.91;61.91;96160.13;5015288;28;20045;-82
2024/01/15 00:32:43;;;;;;;30.88;10.52;;;;;;;-0.74;61.08;96173.28;5020569;28;20038;-82
2024/01/15 00:35:09;;;;;;;33.80;12.07;;;;;;;-0.73;62.18;96166.44;5008748;28;20422;-82
2024/01/15 00:37:34;;;;;;;32.35;12.18;;;;;;;-0.67;61.24;96163.88;5003747;28;20025;-82
2024/01/15 00:39:59;;;;;;;34.85;13.07;;;;;;;-0.94;61.99;96147.75;5025465;28;20025;-81
2024/01/15 00:42:25;;;;;;;36.25;11.70;;;;;;;-0.97;62.14;96154.03;5002519;28;20080;-82
2024/01/15 00:44:50;;;;;;;31.48;12.50;;;;;;;-0.78;62.13;96157.56;5022002;28;20084;-83
2024/01/15 00:47:18;;;;;;;33.35;10.90;;;;;;;-0.72;61.35;96150.91;5014342;28;20827;-82
2024/01/15 00:49:43;;;;;;;29.65;11.63;;;;;;;-0.68;62.30;96157.16;4985075;28;20448;-82
2024/01/15 00:52:09;;;;;;;28.85;9.23;;;;;;;-0.89;62.59;96157.38;5014988;28;20045;-81
2024/01/15 00:54:34;;;;;;;32.88;11.27;;;;;;;-0.74;62.13;96154.63;4989469;28;20372;-82
2024/01/15 00:56:59;;;;;;;30.98;11.38;;;;;;;-0.68;62.17;96153.84;4999118;28;20057;-81
2024/01/15 00:59:25;;;;;;;28.83;9.77;;;;;;;-0.69;62.12;96150.47;5006562;28;20037;-83
2024/01/15 01:01:50;;;;;;;30.70;10.68;;;;;;;-0.61;62.27;96147.72;4998987;28;20033;-81
2024/01/15 01:04:15;;;;;;;31.55;9.77;;;;;;;-0.66;61.73;96139.09;5031358;28;20059;-82
2024/01/15 01:06:41;;;;;;;28.17;10.75;;;;;;;-0.72;61.83;96147.53;4989112;28;20030;-81
2024/01/15 01:09:06;;;;;;;30.40;11.15;;;;;;;-0.93;62.11;96138.31;4989114;28;20033;-81
2024/01/15 01:11:31;;;;;;;28.45;9.55;;;;;;;-0.71;62.03;96137.13;5024505;28;20029;-82
2024/01/15 01:13:57;;;;;;;31.85;10.40;;;;;;;-0.62;61.77;96146.16;5009178;28;20131;-78
2024/01/15 01:16:22;;;;;;;28.13;10.50;;;;;;;-0.67;61.75;96151.09;5027150;28;20409;-78
2024/01/15 01:18:48;;;;;;;27.60;9.50;;;;;;;-0.72;62.77;96147.53;5020943;28;20493;-78
2024/01/15 01:21:13;;;;;;;30.17;10.38;;;;;;;-0.49;62.47;96152.25;5006194;28;20052;-78
2024/01/15 01:23:38;;;;;;;25.83;10.13;;;;;;;-0.87;62.21;96150.31;5002246;28;20509;-79
2024/01/15 01:26:04;;;;;;;32.47;10.48;;;;;;;-0.68;62.17;96144.41;5018195;28;20112;-78
2024/01/15 01:28:29;;;;;;;24.88;10.18;;;;;;;-0.77;62.40;96150.69;5002456;28;20115;-78
2024/01/15 01:30:55;;;;;;;26.95;9.50;;;;;;;-0.48;61.90;96151.25;4997972;28;20036;-78
2024/01/15 01:33:20;;;;;;;30.67;10.32;;;;;;;-0.51;61.68;96146.53;5019167;28;20044;-81
2024/01/15 01:35:46;;;;;;;23.55;9.80;;;;;;;-0.58;62.75;96136.31;4989734;28;20037;-82
2024/01/15 01:38:12;;;;;;;29.23;10.80;;;;;;;-0.50;62.13;96148.09;4981230;28;20035;-82
2024/01/15 01:40:37;;;;;;;29.10;10.27;;;;;;;-0.49;62.78;96144.56;5012318;28;20041;-81
2024/01/15 01:43:04;;;;;;;32.45;11.02;;;;;;;-0.67;62.75;96140.06;5019021;28;20033;-82
2024/01/15 01:45:30;;;;;;;29.92;10.80;;;;;;;-0.59;62.09;96150.09;5020801;28;20034;-82
2024/01/15 01:47:55;;;;;;;30.40;10.52;;;;;;;-0.71;62.33;96151.69;5020546;28;20111;-81
2024/01/15 01:50:21;;;;;;;29.67;10.63;;;;;;;-0.57;63.16;96150.66;5002554;28;20041;-82
2024/01/15 01:52:46;;;;;;;31.33;11.07;;;;;;;-0.44;62.46;96155.75;5003029;28;20029;-81
2024/01/15 01:55:12;;;;;;;26.35;10.02;;;;;;;-0.57;62.14;96148.91;5025235;28;20042;-83
2024/01/15 01:57:37;;;;;;;34.33;11.98;;;;;;;-0.51;62.07;96146.53;5011293;28;20500;-83
2024/01/15 02:00:04;;;;;;;32.50;10.48;;;;;;;-0.55;62.58;96150.47;5020986;28;20032;-82
2024/01/15 02:02:31;;;;;;;37.53;12.13;;;;;;;-0.53;62.96;96141.63;5018439;28;20072;-81
2024/01/15 02:04:56;;;;;;;32.72;10.30;;;;;;;-0.56;63.07;96149.69;5005825;28;20413;-82
2024/01/15 02:07:22;;;;;;;32.05;11.57;;;;;;;-0.71;62.88;96139.66;4996509;28;20076;-81
2024/01/15 02:09:49;;;;;;;31.48;10.43;;;;;;;-0.63;63.78;96142.03;5010497;28;20072;-82
2024/01/15 02:12:15;;;;;;;30.55;11.20;;;;;;;-0.52;62.68;96135.50;4998819;28;20035;-83
2024/01/15 02:14:40;;;;;;;30.75;11.20;;;;;;;-0.49;62.68;96140.25;5005117;28;20425;-82
2024/01/15 02:17:06;;;;;;;32.40;11.30;;;;;;;-0.47;62.66;96129.81;4998446;28;20040;-82
2024/01/15 02:19:31;;;;;;;34.90;12.88;;;;;;;-0.46;63.00;96128.84;5010229;28;20025;-83
2024/01/15 02:21:57;;;;;;;32.28;10.57;;;;;;;-0.42;62.61;96133.34;4992754;28;20146;-82
2024/01/15 02:24:22;;;;;;;29.67;9.77;;;;;;;-0.52;62.60;96129.63;5009015;28;20478;-78
2024/01/15 02:26:48;;;;;;;35.05;11.40;;;;;;;-0.56;63.38;96129.25;5012723;28;20100;-78
2024/01/15 02:29:14;;;;;;;34.17;10.25;;;;;;;-0.42;62.96;96120.53;5011238;28;20034;-80
2024/01/15 02:31:40;;;;;;;31.85;10.25;;;;;;;-0.44;63.06;96126.84;5026709;28;20042;-79
2024/01/15 02:34:05;;;;;;;31.65;11.50;;;;;;;-0.68;63.68;96118.84;5009292;28;20417;-79
2024/01/15 02:36:31;;;;;;;33.65;12.18;;;;;;;-0.60;63.21;96112.72;4981286;28;20235;-78
2024/01/15 02:38:56;;;;;;;35.70;11.52;;;;;;;-0.50;63.47;96123.31;4993916;28;20243;-78
2024/01/15 02:41:21;;;;;;;34.75;11.80;;;;;;;-0.39;63.45;96125.25;5017112;28;20050;-78
2024/01/15 02:43:47;;;;;;;32.67;11.65;;;;;;;-0.50;62.91;96122.53;5033659;28;20037;-78
2024/01/15 02:46:12;;;;;;;27.75;10.15;;;;;;;-0.70;64.46;96117.44;4997317;28;20633;-79
2024/01/15 02:48:38;;;;;;;29.80;11.73;;;;;;;-0.95;64.83;96105.28;5005785;28;20048;-78
2024/01/15 02:51:03;;;;;;;32.20;10.57;;;;;;;-0.66;64.00;96104.06;5004993;28;20033;-78
2024/01/15 02:53:29;;;;;;;32.00;10.60;;;;;;;-0.53;64.26;96108.41;5000358;28;20509;-78
2024/01/15 02:55:54;;;;;;;29.05;9.85;;;;;;;-0.48;63.90;96115.44;5018023;28;20025;-78
2024/01/15 02:58:19;;;;;;;30.30;11.32;;;;;;;-0.35;63.35;96120.53;5021468;28;20089;-78
2024/01/15 03:00:46;;;;;;;33.35;11.15;;;;;;;-0.29;62.68;96112.06;5017797;28;20036;-78
2024/01/15 03:03:12;;;;;;;31.63;10.93;;;;;;;-0.28;62.74;96120.50;5006286;28;20489;-78
2024/01/15 03:05:37;;;;;;;29.50;10.98;;;;;;;-0.37;63.69;96122.50;5019442;28;20072;-79
2024/01/15 03:08:03;;;;;;;30.52;10.65;;;;;;;-0.28;62.73;96131.53;5006275;28;20034;-78
2024/01/15 03:10:28;;;;;;;32.45;10.57;;;;;;;-0.26;63.20;96126.22;5024632;28;20041;-77
2024/01/15 03:12:53;;;;;;;39.15;12.18;;;;;;;-0.23;62.47;96121.47;5003768;28;20499;-79
2024/01/15 03:15:19;;;;;;;33.08;11.13;;;;;;;-0.18;63.20;96132.91;5024428;28;20037;-78
2024/01/15 03:17:44;;;;;;;31.45;9.57;;;;;;;-0.10;63.04;96135.22;5020633;28;20056;-78
2024/01/15 03:20:10;;;;;;;32.65;12.07;;;;;;;-0.26;63.17;96113.41;4989449;28;20026;-78
2024/01/15 03:22:36;;;;;;;34.35;11.00;;;;;;;-0.40;63.40;96122.91;5005798;28;20095;-78
2024/01/15 03:25:01;;;;;;;32.25;10.68;;;;;;;-0.48;64.07;96126.47;5025156;28;20053;-78
2024/01/15 03:27:27;;;;;;;30.00;11.40;;;;;;;-0.30;62.65;96115.59;5006290;28;20543;-78
2024/01/15 03:29:52;;;;;;;29.63;10.60;;;;;;;-0.46;63.77;96113.50;5003046;28;20025;-78
2024/01/15 03:32:19;;;;;;;27.38;9.95;;;;;;;-0.25;63.90;96115.00;5005480;28;20037;-79
2024/01/15 03:34:45;;;;;;;28.38;10.30;;;;;;;-0.58;64.62;96100.53;5015535;28;20123;-81
2024/01/15 03:37:11;;;;;;;31.40;11.23;;;;;;;-0.84;65.63;96102.16;5024287;28;20048;-80
2024/01/15 03:39:36;;;;;;;33.08;11.55;;;;;;;-0.66;64.43;96093.84;5001901;28;20033;-81
2024/01/15 03:42:01;;;;;;;26.75;10.55;;;;;;;-0.53;64.73;96090.50;5011198;28;20041;-82
2024/01/15 03:44:27;;;;;;;28.45;10.70;;;;;;;-0.68;64.76;96087.38;4983242;28;20090;-82
2024/01/15 03:46:52;;;;;;;26.95;10.30;;;;;;;-0.41;64.51;96088.88;4986899;28;20046;-81
2024/01/15 03:49:17;;;;;;;33.03;10.75;;;;;;;-0.37;64.56;96089.25;5007781;28;20026;-81
2024/01/15 03:51:43;;;;;;;28.60;10.60;;;;;;;-0.40;64.08;96076.88;5002425;28;20485;-81
2024/01/15 03:54:08;;;;;;;28.70;11.07;;;;;;;-0.50;64.69;96086.75;4991394;28;20092;-79
2024/01/15 03:56:34;;;;;;;27.58;10.20;;;;;;;-0.46;65.03;96081.03;5029348;28;20056;-78
2024/01/15 03:58:59;;;;;;;27.30;9.80;;;;;;;-0.36;64.05;96082.38;5033461;28;20145;-79
2024/01/15 04:01:24;;;;;;;26.80;9.63;;;;;;;-0.25;63.83;96095.31;5005547;28;20037;-78
2024/01/15 04:03:50;;;;;;;27.45;9.43;;;;;;;-0.36;64.39;96072.94;5007169;28;20033;-78
2024/01/15 04:06:15;;;;;;;30.42;10.30;;;;;;;-0.19;63.83;96080.94;5008616;28;20033;-78
2024/01/15 04:08:41;;;;;;;26.98;9.50;;;;;;;-0.16;63.92;96072.06;5018687;28;20099;-78
2024/01/15 04:11:06;;;;;;;28.38;9.02;;;;;;;-0.15;64.08;96068.53;5021221;28;20053;-78
2024/01/15 04:13:35;;;;;;;26.05;9.02;;;;;;;-0.41;64.29;96055.63;5006357;28;20036;-78
2024/01/15 04:16:01;;;;;;;28.05;10.07;;;;;;;-0.44;64.63;96060.38;4981586;28;20042;-79
2024/01/15 04:18:28;;;;;;;26.40;9.35;;;;;;;-0.05;64.21;96063.78;5005346;28;20504;-78
2024/01/15 04:20:53;;;;;;;27.58;10.35;;;;;;;-0.28;63.98;96059.91;5026512;28;20092;-79
2024/01/15 04:23:18;;;;;;;25.05;8.52;;;;;;;-0.39;65.14;96037.53;5006112;28;20059;-78
2024/01/15 04:25:45;;;;;;;26.00;10.18;;;;;;;-0.18;64.57;96048.47;5018219;28;20038;-78
2024/01/15 04:28:12;;;;;;;24.63;9.48;;;;;;;-0.09;63.48;96037.00;4986116;28;20465;-78
2024/01/15 04:30:37;;;;;;;23.02;8.75;;;;;;;0.08;63.33;96040.66;5017779;28;20045;-77
2024/01/15 04:33:03;;;;;;;27.65;8.65;;;;;;;0.14;63.79;96052.63;5018671;28;20038;-78
2024/01/15 04:35:30;;;;;;;25.08;8.93;;;;;;;0.09;63.14;96039.66;5012062;28;20061;-78
2024/01/15 04:37:55;;;;;;;26.88;10.27;;;;;;;-0.18;64.40;96035.69;5027505;28;20037;-78
2024/01/15 04:40:21;;;;;;;24.98;9.07;;;;;;;-0.52;65.39;96020.47;5006454;28;20393;-77
2024/01/15 04:42:46;;;;;;;23.73;8.98;;;;;;;-0.23;65.00;96010.72;5000478;28;20041;-78
2024/01/15 04:45:12;;;;;;;27.90;9.00;;;;;;;-0.20;64.96;96008.53;5011375;28;20033;-80
2024/01/15 04:47:37;;;;;;;32.30;9.88;;;;;;;-0.18;64.41;96010.09;5008684;28;20037;-82
2024/01/15 04:50:07;;;;;;;30.35;10.95;;;;;;;-0.16;64.70;96008.91;5003041;28;20469;-82
2024/01/15 04:52:32;;;;;;;29.50;10.68;;;;;;;-0.11;63.94;96014.19;4996327;28;20036;-82
2024/01/15 04:54:57;;;;;;;24.58;10.38;;;;;;;0.00;64.16;96020.44;5016539;28;20037;-82
2024/01/15 04:57:23;;;;;;;29.70;10.90;;;;;;;-0.12;64.75;96016.94;4991063;28;20515;-81
2024/01/15 04:59:48;;;;;;;26.00;9.75;;;;;;;-0.01;64.60;96003.50;5023257;28;20033;-82
2024/01/15 05:02:13;;;;;;;28.17;10.43;;;;;;;0.15;64.23;96018.34;4985644;28;20445;-83
2024/01/15 05:04:39;;;;;;;28.60;10.93;;;;;;;0.13;63.26;96020.34;4980961;28;20065;-78
2024/01/15 05:07:05;;;;;;;32.35;10.48;;;;;;;0.08;64.02;96022.72;5009944;28;20026;-79
2024/01/15 05:09:30;;;;;;;27.63;11.27;;;;;;;0.16;63.93;96019.16;4992387;28;20120;-78
2024/01/15 05:11:56;;;;;;;25.30;10.18;;;;;;;0.17;63.79;96024.06;5002109;28;20087;-79
2024/01/15 05:14:21;;;;;;;28.85;11.70;;;;;;;0.26;64.05;96022.03;5002842;28;20383;-78
2024/01/15 05:16:48;;;;;;;31.17;11.65;;;;;;;0.21;63.54;96015.97;4995883;28;20140;-78
2024/01/15 05:19:13;;;;;;;30.60;12.93;;;;;;;0.21;64.19;96026.19;5007737;28;20128;-78
2024/01/15 05:21:39;;;;;;;25.60;10.73;;;;;;;0.24;63.59;96029.16;5002162;28;20464;-78
2024/01/15 05:24:04;;;;;;;30.60;11.30;;;;;;;0.14;64.38;96016.03;5003171;28;20079;-78
2024/01/15 05:26:30;;;;;;;28.25;10.88;;;;;;;0.08;64.12;96009.94;5021496;28;20044;-78
2024/01/15 05:28:55;;;;;;;26.48;10.18;;;;;;;0.20;64.65;96019.53;4997260;28;20037;-78
2024/01/15 05:31:21;;;;;;;31.05;11.82;;;;;;;0.34;63.34;96011.56;5021313;28;20038;-78
2024/01/15 05:33:46;;;;;;;30.77;12.30;;;;;;;0.26;63.52;95988.78;5003606;28;20100;-78
2024/01/15 05:36:11;;;;;;;29.30;10.43;;;;;;;0.27;64.12;96013.34;5006092;28;20029;-78
2024/01/15 05:38:37;;;;;;;34.50;11.93;;;;;;;0.31;64.70;95998.38;4998811;28;20033;-78
2024/01/15 05:41:02;;;;;;;29.83;11.00;;;;;;;0.30;63.85;96007.81;4985355;28;20030;-79
2024/01/15 05:43:28;;;;;;;26.67;12.10;;;;;;;0.41;63.35;96003.03;5011473;28;20037;-78
2024/01/15 05:45:53;;;;;;;30.35;11.35;;;;;;;0.44;63.84;96000.84;5008928;28;20037;-78
2024/01/15 05:48:18;;;;;;;29.42;10.85;;;;;;;0.21;64.72;96005.72;5020120;28;20478;-78
2024/01/15 05:50:44;;;;;;;32.28;11.65;;;;;;;0.26;64.43;96014.38;5016801;28;20037;-78
2024/01/15 05:53:09;;;;;;;25.95;10.10;;;;;;;0.44;64.45;96000.84;5005261;28;20041;-78
2024/01/15 05:55:36;;;;;;;29.95;10.85;;;;;;;0.37;64.63;96005.22;5023185;28;20029;-78
2024/01/15 05:58:01;;;;;;;28.65;11.75;;;;;;;0.36;64.17;96004.44;5009277;28;20084;-78
2024/01/15 06:00:27;;;;;;;28.33;12.25;;;;;;;0.45;63.93;95997.28;4998741;28;20468;-78
2024/01/15 06:02:52;;;;;;;34.50;12.50;;;;;;;0.14;64.89;95993.00;5016616;28;20522;-79
2024/01/15 06:05:18;;;;;;;31.63;11.75;;;;;;;0.40;63.69;95986.88;4997408;28;20033;-79
2024/01/15 06:07:43;;;;;;;29.75;10.65;;;;;;;0.40;64.38;95993.78;5015179;28;20171;-78
2024/01/15 06:10:09;;;;;;;31.42;11.68;;;;;;;0.22;65.14;95979.16;5007672;28;20107;-78
2024/01/15 06:12:35;;;;;;;34.78;11.80;;;;;;;0.45;64.82;95981.94;5016229;28;20059;-78
2024/01/15 06:15:00;;;;;;;31.13;11.85;;;;;;;0.44;64.84;95982.13;4999050;28;20095;-78
2024/01/15 06:17:26;;;;;;;31.88;11.15;;;;;;;0.43;65.32;95978.00;4992925;28;20541;-78
2024/01/15 06:19:51;;;;;;;29.25;11.13;;;;;;;0.31;64.45;95977.88;5005872;28;20124;-78
2024/01/15 06:22:17;;;;;;;31.33;11.40;;;;;;;0.31;64.71;95972.75;4989015;28;20025;-78
2024/01/15 06:24:42;;;;;;;29.23;12.00;;;;;;;0.40;64.31;95978.44;5013276;28;20117;-78
2024/01/15 06:27:08;;;;;;;28.65;11.57;;;;;;;0.60;63.83;95975.69;5009617;28;20180;-78
2024/01/15 06:29:33;;;;;;;30.92;11.82;;;;;;;0.56;64.13;95983.00;5005608;28;20064;-78
2024/01/15 06:31:58;;;;;;;30.20;10.68;;;;;;;0.30;64.87;95978.91;4990798;28;20030;-78
2024/01/15 06:34:24;;;;;;;28.30;11.77;;;;;;;0.24;65.83;95984.84;5023357;28;20627;-78
2024/01/15 06:36:49;;;;;;;29.23;11.23;;;;;;;0.34;64.61;95978.28;4986335;28;20484;-78
2024/01/15 06:39:15;;;;;;;30.60;13.30;;;;;;;0.60;64.54;95984.19;5010257;28;20501;-78
2024/01/15 06:41:43;;;;;;;30.67;11.10;;;;;;;0.44;64.89;95975.22;5001819;28;20033;-78
2024/01/15 06:44:12;;;;;;;23.70;10.80;;;;;;;0.65;65.25;95976.66;5016710;28;20049;-78
2024/01/15 06:46:45;;;;;;;27.17;10.82;;;;;;;0.71;64.03;95975.78;5038685;28;20090;-78
2024/01/15 06:49:11;;;;;;;31.70;11.18;;;;;;;0.43;65.00;95976.25;5018030;28;20301;-78
2024/01/15 06:51:37;;;;;;;28.65;11.05;;;;;;;0.50;64.28;95983.88;5009808;28;20040;-78
2024/01/15 06:54:03;;;;;;;30.42;11.88;;;;;;;0.67;64.38;95979.78;5008158;28;20033;-78
2024/01/15 06:56:28;;;;;;;27.90;10.30;;;;;;;0.59;64.11;95974.91;4993977;28;20034;-78
2024/01/15 06:58:54;;;;;;;29.50;11.90;;;;;;;0.60;64.34;95973.94;5002101;28;20026;-78
2024/01/15 07:01:19;;;;;;;30.23;10.82;;;;;;;0.47;65.44;95979.94;5015298;28;20068;-78
2024/01/15 07:03:44;;;;;;;29.05;11.13;;;;;;;0.66;64.46;95979.97;4993963;28;20036;-78
2024/01/15 07:06:11;;;;;;;28.33;11.43;;;;;;;0.64;64.84;95977.63;5005526;28;20096;-83
2024/01/15 07:08:36;;;;;;;26.42;11.20;;;;;;;0.64;64.34;95979.41;5008679;28;20106;-83
2024/01/15 07:11:04;;;;;;;23.88;10.98;;;;;;;0.60;64.76;95973.13;5006460;28;20473;-83
2024/01/15 07:13:30;;;;;;;26.80;11.40;;;;;;;0.62;64.43;95971.13;5032767;28;20034;-83
2024/01/15 07:15:55;;;;;;;27.20;11.55;;;;;;;0.70;64.89;95958.88;5008527;28;20550;-82
2024/01/15 07:18:20;;;;;;;25.05;10.93;;;;;;;0.70;63.88;95963.19;4993615;28;20030;-83
2024/01/15 07:20:46;;;;;;;26.65;11.07;;;;;;;0.79;64.45;95967.06;5028201;28;20045;-83
2024/01/15 07:23:12;;;;;;;28.75;10.60;;;;;;;0.73;64.44;95966.09;4982592;28;20025;-81
2024/01/15 07:25:37;;;;;;;25.77;10.98;;;;;;;0.79;64.44;95961.13;5027750;28;20152;-78
2024/01/15 07:28:03;;;;;;;23.67;11.73;;;;;;;0.64;65.20;95964.03;4982837;28;20341;-83
2024/01/15 07:30:29;;;;;;;23.00;10.07;;;;;;;0.74;65.07;95959.22;5009827;28;20524;-83
2024/01/15 07:32:54;;;;;;;28.20;11.60;;;;;;;0.90;65.13;95952.75;5008005;28;20117;-83
2024/01/15 07:35:20;;;;;;;28.67;11.00;;;;;;;0.76;64.42;95964.13;5013013;28;20046;-83
2024/01/15 07:37:46;;;;;;;26.55;10.77;;;;;;;0.83;64.47;95959.72;5000442;28;20034;-82
2024/01/15 07:40:12;;;;;;;27.27;12.20;;;;;;;0.93;64.55;95963.34;5008387;28;20026;-81
2024/01/15 07:42:38;;;;;;;28.40;10.60;;;;;;;0.91;64.67;95957.66;4999588;28;20033;-83
2024/01/15 07:45:04;;;;;;;26.98;11.07;;;;;;;0.62;64.58;95961.69;5005968;28;20394;-82
2024/01/15 07:47:30;;;;;;;26.63;12.00;;;;;;;0.80;64.50;95966.03;5007070;28;20029;-82
2024/01/15 07:49:56;;;;;;;29.20;11.68;;;;;;;0.88;64.79;95963.22;5000724;28;20038;-84
2024/01/15 07:52:21;;;;;;;27.85;11.25;;;;;;;0.90;64.95;95950.97;5006512;28;20041;-83
2024/01/15 07:54:46;;;;;;;27.88;10.75;;;;;;;1.02;63.72;95951.03;5004246;28;20045;-83
2024/01/15 07:57:12;;;;;;;23.40;10.27;;;;;;;1.02;63.94;95947.72;4984500;28;20472;-82
2024/01/15 07:59:37;;;;;;;28.55;11.18;;;;;;;0.98;64.42;95952.47;4990579;28;20080;-83
2024/01/15 08:02:03;;;;;;;30.40;11.05;;;;;;;0.93;64.80;95953.09;5007769;28;20076;-83
2024/01/15 08:04:28;;;;;;;29.63;11.75;;;;;;;1.07;64.67;95956.31;5019638;28;20465;-83
2024/01/15 08:06:54;;;;;;;29.63;11.82;;;;;;;0.96;64.76;95964.72;5025746;28;20044;-83
2024/01/15 08:09:19;;;;;;;28.77;11.85;;;;;;;0.98;64.97;95959.38;5022056;28;20065;-82
2024/01/15 08:11:45;;;;;;;27.27;10.68;;;;;;;0.96;64.57;95956.22;5020228;28;20133;-83
2024/01/15 08:14:11;;;;;;;29.33;12.15;;;;;;;0.91;64.86;95956.91;5019405;28;20084;-83
2024/01/15 08:16:37;;;;;;;26.63;11.98;;;;;;;1.08;63.95;95968.16;5023260;28;20202;-83
2024/01/15 08:19:02;;;;;;;28.15;11.68;;;;;;;0.93;64.61;95954.91;4992539;28;20554;-83
2024/01/15 08:21:31;;;;;;;28.98;11.23;;;;;;;1.10;65.35;95970.50;5004795;28;20045;-81
2024/01/15 08:24:02;;;;;;;27.75;11.63;;;;;;;1.00;64.10;95963.28;5004332;28;20033;-82
2024/01/15 08:26:27;;;;;;;29.88;10.93;;;;;;;1.09;65.14;95964.56;4996108;28;20057;-83
2024/01/15 08:28:53;;;;;;;31.50;12.50;;;;;;;1.02;64.74;95956.16;5018671;28;20472;-82
2024/01/15 08:31:18;;;;;;;28.08;12.02;;;;;;;0.97;65.45;95950.13;5009003;28;21462;-82
2024/01/15 08:33:44;;;;;;;30.00;11.63;;;;;;;0.94;64.39;95956.44;5006995;28;20034;-82
2024/01/15 08:36:10;;;;;;;28.48;10.70;;;;;;;0.93;65.10;95960.03;5005802;28;20059;-78
2024/01/15 08:38:35;;;;;;;33.38;12.23;;;;;;;0.90;65.71;95950.19;5032480;28;20485;-78
2024/01/15 08:41:01;;;;;;;28.48;11.55;;;;;;;0.93;65.13;95955.66;5021695;28;20496;-78
2024/01/15 08:43:27;;;;;;;27.40;11.73;;;;;;;1.08;64.92;95954.53;4999940;28;20030;-78
2024/01/15 08:45:53;;;;;;;32.95;11.25;;;;;;;1.19;64.59;95951.25;4998363;28;20034;-78
2024/01/15 08:48:19;;;;;;;24.88;11.48;;;;;;;1.16;64.73;95967.06;5019367;28;20021;-78
2024/01/15 08:50:47;;;;;;;28.70;10.93;;;;;;;1.30;64.44;95968.50;5014545;28;20026;-78
2024/01/15 08:53:13;;;;;;;27.83;12.07;;;;;;;1.15;64.54;95962.94;5009032;28;20484;-78
2024/01/15 08:55:39;;;;;;;28.48;12.63;;;;;;;1.35;64.63;95964.50;5000449;28;20035;-78
2024/01/15 08:58:04;;;;;;;27.35;11.70;;;;;;;1.33;64.98;95956.25;5011049;28;20030;-78
2024/01/15 09:00:30;;;;;;;24.00;10.77;;;;;;;1.29;64.65;95956.66;4985283;28;20041;-78
2024/01/15 09:02:56;;;;;;;25.63;10.88;;;;;;;1.27;65.05;95960.47;5008129;28;20124;-78
2024/01/15 09:05:22;;;;;;;23.88;10.00;;;;;;;1.18;65.67;95965.06;5007313;28;20038;-78
2024/01/15 09:07:48;;;;;;;27.20;11.00;;;;;;;1.29;64.84;95961.78;5025344;28;20054;-78
2024/01/15 09:10:14;;;;;;;24.00;9.32;;;;;;;1.27;64.38;95960.47;5007620;28;20437;-78
2024/01/15 09:12:40;;;;;;;23.13;10.30;;;;;;;1.23;65.32;95954.16;4993134;28;20088;-78
2024/01/15 09:15:05;;;;;;;26.15;10.18;;;;;;;1.25;64.91;95944.47;4994491;28;20580;-78
2024/01/15 09:17:31;;;;;;;28.40;12.35;;;;;;;1.10;65.90;95950.75;5037961;28;20051;-78
2024/01/15 09:19:57;;;;;;;27.75;10.68;;;;;;;1.17;65.59;95948.13;4986334;28;20072;-78
2024/01/15 09:22:22;;;;;;;24.45;11.02;;;;;;;1.26;65.28;95946.81;5009262;28;20065;-78
2024/01/15 09:24:48;;;;;;;27.35;11.10;;;;;;;1.38;65.32;95953.81;5028635;28;20457;-78
2024/01/15 09:27:13;;;;;;;28.33;11.15;;;;;;;1.35;64.98;95949.09;5011395;28;20033;-83
2024/01/15 09:29:41;;;;;;;24.38;11.02;;;;;;;1.37;65.68;95950.47;4986830;28;20512;-82
2024/01/15 09:32:07;;;;;;;23.55;9.50;;;;;;;1.49;65.00;95945.38;5009306;28;20520;-82
2024/01/15 09:34:34;;;;;;;24.35;10.30;;;;;;;1.42;64.23;95939.53;4996114;28;20116;-84
2024/01/15 09:37:03;;;;;;;26.17;10.55;;;;;;;1.47;64.70;95937.13;5024276;28;20548;-83
2024/01/15 09:39:30;;;;;;;26.40;10.23;;;;;;;1.47;65.23;95943.03;4999618;28;20736;-85
2024/01/15 09:41:56;;;;;;;24.42;10.10;;;;;;;1.51;65.05;95943.41;5010895;28;20037;-84
2024/01/15 09:44:22;;;;;;;21.75;9.95;;;;;;;1.50;64.78;95939.25;5017252;28;21489;-85
2024/01/15 09:46:51;;;;;;;25.88;9.57;;;;;;;1.55;65.15;95947.06;5014677;28;20049;-83
2024/01/15 09:49:17;;;;;;;22.38;9.25;;;;;;;1.60;64.95;95952.34;5013578;28;20355;-83
2024/01/15 09:51:43;;;;;;;26.83;10.85;;;;;;;1.65;64.87;95946.56;4984902;28;20100;-85
2024/01/15 09:54:08;;;;;;;27.60;11.80;;;;;;;1.64;65.39;95943.19;5008508;28;20558;-85
2024/01/15 09:56:35;;;;;;;24.27;10.00;;;;;;;1.73;64.34;95948.84;4986905;28;20042;-84
2024/01/15 09:59:01;;;;;;;22.00;9.73;;;;;;;1.75;64.45;95948.59;5000274;28;20562;-85
2024/01/15 10:01:26;;;;;;;22.10;9.35;;;;;;;1.74;63.79;95942.69;4992197;28;20034;-84
2024/01/15 10:03:53;;;;;;;24.63;9.93;;;;;;;1.58;64.71;95944.09;4994079;28;20034;-85
2024/01/15 10:06:18;;;;;;;20.23;9.32;;;;;;;1.67;65.24;95932.50;4976173;28;20038;-84
2024/01/15 10:08:48;;;;;;;24.75;9.93;;;;;;;1.77;64.45;95941.47;4988005;28;20467;-84
2024/01/15 10:11:13;;;;;;;19.48;8.40;;;;;;;1.65;64.64;95938.88;5010008;28;20036;-85
2024/01/15 10:13:39;;;;;;;20.50;9.25;;;;;;;1.81;65.15;95938.25;5016808;28;20033;-83
2024/01/15 10:16:05;;;;;;;23.83;9.43;;;;;;;1.80;65.35;95943.59;5025387;28;20397;-85
2024/01/15 10:18:30;;;;;;;20.17;8.55;;;;;;;1.82;65.26;95936.47;5010865;28;20033;-85
2024/01/15 10:20:57;;;;;;;19.45;8.50;;;;;;;1.75;65.05;95930.63;5012722;28;20059;-84
2024/01/15 10:23:23;;;;;;;22.52;9.25;;;;;;;1.83;64.74;95930.31;4991608;28;20481;-83
2024/01/15 10:25:48;;;;;;;21.85;9.10;;;;;;;1.82;65.01;95929.56;5023092;28;20053;-83
2024/01/15 10:28:14;;;;;;;22.08;9.75;;;;;;;1.83;64.52;95925.19;5007774;28;20042;-84
2024/01/15 10:30:40;;;;;;;21.30;9.15;;;;;;;1.87;64.59;95923.75;5007890;28;20493;-85
2024/01/15 10:33:05;;;;;;;21.60;9.05;;;;;;;1.91;64.97;95918.97;4975175;28;20125;-85
2024/01/15 10:35:32;;;;;;;22.30;9.95;;;;;;;1.85;64.97;95921.41;5003891;28;20110;-84
2024/01/15 10:37:58;;;;;;;21.50;9.18;;;;;;;1.97;65.36;95916.31;5018964;28;20076;-79
2024/01/15 10:40:24;;;;;;;23.08;9.70;;;;;;;1.96;64.01;95913.97;4989453;28;20029;-80
2024/01/15 10:42:49;;;;;;;22.50;10.25;;;;;;;1.87;65.20;95903.22;5003718;28;20047;-79
2024/01/15 10:45:15;;;;;;;26.13;11.13;;;;;;;1.89;65.44;95906.34;5008741;28;20057;-79
2024/01/15 10:47:43;;;;;;;22.42;9.40;;;;;;;2.06;65.69;95909.06;4987336;28;20397;-79
2024/01/15 10:50:10;;;;;;;21.52;9.35;;;;;;;2.05;64.85;95903.13;4997068;28;20524;-80
2024/01/15 10:52:37;;;;;;;22.70;10.32;;;;;;;2.08;64.89;95901.16;5005239;28;20036;-79
2024/01/15 10:55:07;;;;;;;21.25;10.00;;;;;;;2.06;65.58;95897.00;5008491;28;20030;-81
2024/01/15 10:57:34;;;;;;;25.25;11.10;;;;;;;2.06;64.98;95899.56;5003613;28;20388;-86
2024/01/15 11:00:03;;;;;;;21.20;10.60;;;;;;;2.07;65.20;95895.22;4990073;28;20021;-84
2024/01/15 11:02:28;;;;;;;21.98;9.63;;;;;;;2.05;64.06;95897.22;5002614;28;20574;-84
2024/01/15 11:04:54;;;;;;;22.83;9.93;;;;;;;2.11;65.16;95896.34;5023882;28;20116;-84
2024/01/15 11:07:21;;;;;;;19.20;9.40;;;;;;;2.08;65.17;95890.88;5022946;28;20215;-85
2024/01/15 11:09:47;;;;;;;22.10;10.70;;;;;;;2.18;64.99;95896.25;4994901;28;20442;-84
2024/01/15 11:12:13;;;;;;;21.08;8.90;;;;;;;2.17;65.43;95892.09;5031176;28;20127;-85
2024/01/15 11:14:46;;;;;;;24.05;10.50;;;;;;;2.19;64.70;95893.47;5004236;28;20151;-84
2024/01/15 11:17:12;;;;;;;25.15;11.93;;;;;;;2.17;65.29;95890.31;4987396;28;20120;-82